createdAt,value
2018-07-02T00:00:12.124Z,100917.70
2018-07-02T00:02:46.134Z,100909.05
2018-07-02T00:05:20.328Z,100912.77
2018-07-02T00:07:51.306Z,100908.67
2018-07-02T00:10:24.698Z,100907.66
2018-07-02T00:12:56.720Z,100901.39
2018-07-02T00:15:30.072Z,100898.70
2018-07-02T00:18:03.714Z,100906.20
2018-07-02T00:20:38.207Z,100898.11
2018-07-02T00:23:12.537Z,100893.63
2018-07-02T00:25:47.153Z,100894.69
2018-07-02T00:28:19.621Z,100889.08
2018-07-02T00:30:53.913Z,100888.56
2018-07-02T00:33:27.915Z,100886.26
2018-07-02T00:36:02.473Z,100885.15
2018-07-02T00:38:36.795Z,100881.40
2018-07-02T00:41:11.158Z,100880.28
2018-07-02T00:43:45.750Z,100876.27
2018-07-02T00:46:20.281Z,100872.27
2018-07-02T00:48:54.673Z,100871.66
2018-07-02T00:51:29.168Z,100875.70
2018-07-02T00:54:04.653Z,100866.41
2018-07-02T00:56:38.822Z,100881.05
2018-07-02T00:59:13.263Z,100879.94
2018-07-02T01:01:47.784Z,100883.16
2018-07-02T01:04:21.956Z,100873.28
2018-07-02T01:06:57.193Z,100873.48
2018-07-02T01:09:31.497Z,100868.56
2018-07-02T01:12:05.529Z,100863.02
2018-07-02T01:14:40.405Z,100863.72
2018-07-02T01:17:14.805Z,100869.76
2018-07-02T01:19:49.289Z,100864.07
2018-07-02T01:22:23.548Z,100863.80
2018-07-02T01:24:57.615Z,100860.25
2018-07-02T01:27:35.725Z,100855.77
2018-07-02T01:30:07.396Z,100855.84
2018-07-02T01:32:41.666Z,100856.72
2018-07-02T01:35:13.160Z,100861.34
2018-07-02T01:37:47.262Z,100867.93
2018-07-02T01:40:21.704Z,100864.64
2018-07-02T01:42:54.641Z,100869.18
2018-07-02T01:45:25.621Z,100872.02
2018-07-02T01:47:56.943Z,100869.95
2018-07-02T01:50:27.685Z,100863.09
2018-07-02T01:52:58.835Z,100867.45
2018-07-02T01:55:30.175Z,100858.34
2018-07-02T01:58:01.305Z,100863.00
2018-07-02T02:00:32.758Z,100870.63
2018-07-02T02:03:04.261Z,100872.91
2018-07-02T02:05:35.573Z,100878.77
2018-07-02T02:08:07.889Z,100876.98
2018-07-02T02:10:41.049Z,100886.11
2018-07-02T02:13:12.345Z,100885.56
2018-07-02T02:15:43.791Z,100879.19
2018-07-02T02:18:15.150Z,100882.95
2018-07-02T02:20:46.520Z,100885.27
2018-07-02T02:23:17.881Z,100887.16
2018-07-02T02:25:49.241Z,100884.81
2018-07-02T02:28:20.554Z,100884.81
2018-07-02T02:30:52.012Z,100889.03
2018-07-02T02:33:23.277Z,100892.88
2018-07-02T02:35:54.591Z,100901.83
2018-07-02T02:38:25.958Z,100888.28
2018-07-02T02:40:57.225Z,100887.70
2018-07-02T02:43:29.908Z,100887.26
2018-07-02T02:46:01.196Z,100889.41
2018-07-02T02:48:32.514Z,100886.95
2018-07-02T02:51:03.793Z,100879.34
2018-07-02T02:53:35.204Z,100883.38
2018-07-02T02:56:06.903Z,100886.86
2018-07-02T02:58:38.264Z,100888.35
2018-07-02T03:01:09.704Z,100898.66
2018-07-02T03:03:41.088Z,100898.09
2018-07-02T03:06:12.663Z,100901.76
2018-07-02T03:08:43.924Z,100900.16
2018-07-02T03:11:15.283Z,100891.48
2018-07-02T03:13:46.620Z,100887.72
2018-07-02T03:16:18.161Z,100889.23
2018-07-02T03:18:49.454Z,100884.52
2018-07-02T03:21:20.474Z,100891.02
2018-07-02T03:23:52.102Z,100893.72
2018-07-02T03:26:23.448Z,100890.23
2018-07-02T03:28:58.548Z,100893.36
2018-07-02T03:31:30.046Z,100904.13
2018-07-02T03:34:01.292Z,100896.12
2018-07-02T03:36:32.611Z,100896.11
2018-07-02T03:39:04.685Z,100896.75
2018-07-02T03:41:36.204Z,100898.23
2018-07-02T03:44:07.841Z,100895.44
2018-07-02T03:46:39.221Z,100900.80
2018-07-02T03:49:12.524Z,100891.61
2018-07-02T03:51:43.855Z,100902.05
2018-07-02T03:54:15.378Z,100908.13
2018-07-02T03:56:46.714Z,100905.20
2018-07-02T03:59:18.032Z,100907.09
2018-07-02T04:01:52.433Z,100909.43
2018-07-02T04:04:24.186Z,100907.44
2018-07-02T04:06:55.465Z,100912.11
2018-07-02T04:09:26.813Z,100914.91
2018-07-02T04:12:01.745Z,100917.41
2018-07-02T04:14:32.712Z,100928.15
2018-07-02T04:17:04.099Z,100933.41
2018-07-02T04:19:36.221Z,100935.86
2018-07-02T04:22:07.551Z,100938.20
2018-07-02T04:24:38.889Z,100932.45
2018-07-02T04:27:10.376Z,100922.73
2018-07-02T04:29:41.738Z,100937.30
2018-07-02T04:32:14.030Z,100928.95
2018-07-02T04:34:45.140Z,100929.70
2018-07-02T04:37:16.434Z,100937.02
2018-07-02T04:39:47.818Z,100936.56
2018-07-02T04:42:18.905Z,100938.56
2018-07-02T04:44:50.222Z,100937.78
2018-07-02T04:47:21.563Z,100934.98
2018-07-02T04:49:52.882Z,100941.31
2018-07-02T04:52:24.480Z,100938.58
2018-07-02T04:54:55.790Z,100941.67
2018-07-02T04:57:27.177Z,100938.12
2018-07-02T04:59:58.466Z,100937.83
2018-07-02T05:02:29.759Z,100938.41
2018-07-02T05:05:00.821Z,100939.79
2018-07-02T05:07:31.915Z,100946.47
2018-07-02T05:10:02.846Z,100944.59
2018-07-02T05:12:33.805Z,100938.98
2018-07-02T05:15:04.952Z,100944.53
2018-07-02T05:17:36.084Z,100946.88
2018-07-02T05:20:07.183Z,100950.47
2018-07-02T05:22:38.203Z,100934.23
2018-07-02T05:25:09.342Z,100942.41
2018-07-02T05:27:40.125Z,100944.69
2018-07-02T05:30:11.213Z,100939.83
2018-07-02T05:32:42.305Z,100932.61
2018-07-02T05:35:13.410Z,100943.24
2018-07-02T05:37:44.575Z,100944.02
2018-07-02T05:40:15.714Z,100945.90
2018-07-02T05:42:46.716Z,100937.14
2018-07-02T05:45:17.733Z,100923.90
2018-07-02T05:47:48.733Z,100918.86
2018-07-02T05:50:20.297Z,100920.73
2018-07-02T05:52:51.309Z,100918.67
2018-07-02T05:55:22.437Z,100920.47
2018-07-02T05:57:53.841Z,100915.83
2018-07-02T06:00:25.499Z,100917.02
2018-07-02T06:02:56.623Z,100915.28
2018-07-02T06:05:27.492Z,100913.14
2018-07-02T06:07:58.645Z,100916.03
2018-07-02T06:10:29.900Z,100915.52
2018-07-02T06:13:00.965Z,100903.77
2018-07-02T06:15:32.124Z,100903.57
2018-07-02T06:18:03.236Z,100908.22
2018-07-02T06:20:34.329Z,100899.26
2018-07-02T06:23:05.937Z,100900.95
2018-07-02T06:25:37.075Z,100897.36
2018-07-02T06:28:08.183Z,100889.83
2018-07-02T06:30:39.576Z,100906.23
2018-07-02T06:33:10.728Z,100904.16
2018-07-02T06:35:41.809Z,100900.59
2018-07-02T06:38:12.621Z,100902.03
2018-07-02T06:40:43.652Z,100903.57
2018-07-02T06:43:14.756Z,100908.36
2018-07-02T06:45:45.549Z,100913.66
2018-07-02T06:48:16.653Z,100909.62
2018-07-02T06:50:47.748Z,100910.49
2018-07-02T06:53:18.809Z,100912.61
2018-07-02T06:55:49.597Z,100908.02
2018-07-02T06:58:21.065Z,100908.22
2018-07-02T07:00:52.141Z,100895.83
2018-07-02T07:03:22.970Z,100905.23
2018-07-02T07:05:54.039Z,100897.78
2018-07-02T07:08:25.010Z,100905.52
2018-07-02T07:10:56.037Z,100905.42
2018-07-02T07:13:27.457Z,100900.34
2018-07-02T07:15:58.546Z,100898.27
2018-07-02T07:18:30.158Z,100900.70
2018-07-02T07:21:01.557Z,100898.05
2018-07-02T07:23:32.643Z,100893.89
2018-07-02T07:26:03.742Z,100893.00
2018-07-02T07:28:35.073Z,100891.50
2018-07-02T07:31:06.358Z,100856.88
2018-07-02T07:33:37.635Z,100897.93
2018-07-02T07:36:09.075Z,100901.88
2018-07-02T07:38:40.179Z,100896.95
2018-07-02T07:41:14.636Z,100898.52
2018-07-02T07:43:45.270Z,100899.39
2018-07-02T07:46:16.370Z,100899.87
2018-07-02T07:48:47.370Z,100899.17
2018-07-02T07:51:18.787Z,100899.80
2018-07-02T07:53:49.895Z,100891.27
2018-07-02T07:56:21.300Z,100903.77
2018-07-02T07:58:52.357Z,100889.45
2018-07-02T08:01:23.399Z,100894.40
2018-07-02T08:03:54.650Z,100898.44
2018-07-02T08:06:25.906Z,100894.48
2018-07-02T08:08:56.896Z,100890.35
2018-07-02T08:11:28.017Z,100891.03
2018-07-02T08:13:59.071Z,100897.98
2018-07-02T08:16:30.220Z,100893.81
2018-07-02T08:19:01.277Z,100887.75
2018-07-02T08:21:32.565Z,100893.00
2018-07-02T08:24:04.018Z,100890.70
2018-07-02T08:26:35.117Z,100886.72
2018-07-02T08:29:06.490Z,100890.11
2018-07-02T08:31:37.544Z,100889.73
2018-07-02T08:34:08.623Z,100885.23
2018-07-02T08:36:39.656Z,100893.30
2018-07-02T08:39:12.264Z,100883.67
2018-07-02T08:41:43.464Z,100887.28
2018-07-02T08:44:14.607Z,100878.64
2018-07-02T08:46:45.764Z,100879.16
2018-07-02T08:49:16.928Z,100868.27
2018-07-02T08:51:48.031Z,100868.38
2018-07-02T08:54:19.070Z,100873.42
2018-07-02T08:56:50.223Z,100879.45
2018-07-02T08:59:21.253Z,100873.91
2018-07-02T09:01:52.304Z,100871.37
2018-07-02T09:04:23.293Z,100860.70
2018-07-02T09:06:54.482Z,100871.95
2018-07-02T09:09:25.647Z,100869.37
2018-07-02T09:11:56.705Z,100866.31
2018-07-02T09:14:27.752Z,100866.72
2018-07-02T09:17:07.643Z,100868.94
2018-07-02T09:19:38.719Z,100866.09
2018-07-02T09:22:09.719Z,100858.73
2018-07-02T09:24:40.958Z,100860.03
2018-07-02T09:27:11.960Z,100857.48
2018-07-02T09:29:42.657Z,100866.16
2018-07-02T09:32:13.571Z,100862.25
2018-07-02T09:34:44.733Z,100857.07
2018-07-02T09:37:15.874Z,100849.09
2018-07-02T09:39:46.869Z,100859.89
2018-07-02T09:42:17.900Z,100858.04
2018-07-02T09:44:48.930Z,100856.53
2018-07-02T09:47:19.967Z,100849.65
2018-07-02T09:49:51.013Z,100863.38
2018-07-02T09:52:22.299Z,100848.72
2018-07-02T09:54:53.288Z,100853.88
2018-07-02T09:57:24.653Z,100844.56
2018-07-02T09:59:55.733Z,100859.00
2018-07-02T10:02:26.846Z,100863.73
2018-07-02T10:04:57.812Z,100856.23
2018-07-02T10:07:28.852Z,100865.89
2018-07-02T10:09:59.828Z,100866.57
2018-07-02T10:12:30.897Z,100865.55
2018-07-02T10:15:02.121Z,100860.44
2018-07-02T10:17:33.508Z,100862.78
2018-07-02T10:20:05.222Z,100864.53
2018-07-02T10:22:36.368Z,100851.61
2018-07-02T10:25:09.590Z,100869.77
2018-07-02T10:27:40.596Z,100856.04
2018-07-02T10:30:42.490Z,100856.55
2018-07-02T10:33:16.677Z,100846.84
2018-07-02T10:35:47.644Z,100857.73
2018-07-02T10:38:18.649Z,100858.59
2018-07-02T10:40:49.669Z,100852.69
2018-07-02T10:43:20.960Z,100856.95
2018-07-02T10:45:52.004Z,100849.32
2018-07-02T10:48:23.107Z,100861.34
2018-07-02T10:50:54.457Z,100848.09
2018-07-02T10:53:25.490Z,100851.11
2018-07-02T10:55:56.582Z,100846.59
2018-07-02T10:58:27.593Z,100843.14
2018-07-02T11:00:58.993Z,100844.10
2018-07-02T11:03:30.003Z,100840.97
2018-07-02T11:06:01.446Z,100840.52
2018-07-02T11:08:32.545Z,100840.61
2018-07-02T11:11:03.711Z,100845.02
2018-07-02T11:13:34.652Z,100831.48
2018-07-02T11:16:05.696Z,100832.59
2018-07-02T11:18:36.770Z,100836.00
2018-07-02T11:21:07.885Z,100836.20
2018-07-02T11:23:38.669Z,100834.04
2018-07-02T11:26:09.740Z,100834.17
2018-07-02T11:28:41.208Z,100833.23
2018-07-02T11:31:12.220Z,100830.77
2018-07-02T11:33:43.486Z,100824.74
2018-07-02T11:36:14.957Z,100826.92
2018-07-02T11:38:46.320Z,100819.71
2018-07-02T11:41:17.488Z,100821.52
2018-07-02T11:43:48.686Z,100827.73
2018-07-02T11:46:20.063Z,100822.91
2018-07-02T11:48:56.153Z,100824.25
2018-07-02T11:51:27.248Z,100823.58
2018-07-02T11:53:58.298Z,100821.20
2018-07-02T11:56:29.674Z,100818.31
2018-07-02T11:59:00.802Z,100811.79
2018-07-02T12:01:31.825Z,100815.68
2018-07-02T12:04:02.835Z,100805.81
2018-07-02T12:06:33.636Z,100814.49
2018-07-02T12:09:06.694Z,100813.66
2018-07-02T12:11:37.772Z,100816.66
2018-07-02T12:14:08.947Z,100806.30
2018-07-02T12:16:39.931Z,100813.53
2018-07-02T12:19:11.180Z,100818.56
2018-07-02T12:21:42.253Z,100820.57
2018-07-02T12:24:14.095Z,100828.25
2018-07-02T12:26:45.198Z,100832.30
2018-07-02T12:29:16.534Z,100826.94
2018-07-02T12:31:47.579Z,100838.30
2018-07-02T12:34:18.743Z,100832.30
2018-07-02T12:36:49.498Z,100830.45
2018-07-02T12:39:20.504Z,100830.95
2018-07-02T12:41:51.648Z,100828.59
2018-07-02T12:57:47.910Z,100822.22
2018-07-02T13:00:19.460Z,100820.89
2018-07-02T13:02:50.983Z,100817.53
2018-07-02T13:05:22.595Z,100829.94
2018-07-02T13:07:54.200Z,100814.53
2018-07-02T13:10:25.521Z,100806.48
2018-07-02T13:12:57.063Z,100814.87
2018-07-02T13:15:28.573Z,100811.19
2018-07-02T13:18:00.192Z,100824.41
2018-07-02T13:20:31.674Z,100803.81
2018-07-02T13:23:03.386Z,100799.30
2018-07-02T13:25:34.912Z,100801.63
2018-07-02T13:28:06.127Z,100802.95
2018-07-02T13:30:37.797Z,100805.63
2018-07-02T13:33:09.598Z,100795.92
2018-07-02T13:35:40.827Z,100795.94
2018-07-02T13:38:11.935Z,100796.08
2018-07-02T13:40:43.219Z,100800.47
2018-07-02T13:43:14.306Z,100794.08
2018-07-02T13:45:45.385Z,100795.25
2018-07-02T13:48:16.473Z,100786.70
2018-07-02T13:50:47.446Z,100787.05
2018-07-02T13:53:18.775Z,100794.42
2018-07-02T13:55:49.812Z,100797.42
2018-07-02T13:58:20.787Z,100788.70
2018-07-02T14:00:52.113Z,100786.52
2018-07-02T14:03:23.078Z,100782.69
2018-07-02T14:05:54.129Z,100786.72
2018-07-02T14:08:25.203Z,100782.00
2018-07-02T14:10:56.195Z,100785.19
2018-07-02T14:13:27.174Z,100786.36
2018-07-02T14:15:58.162Z,100786.55
2018-07-02T14:18:29.160Z,100784.19
2018-07-02T14:21:00.234Z,100783.04
2018-07-02T14:23:31.239Z,100785.20
2018-07-02T14:26:01.952Z,100766.62
2018-07-02T14:28:32.931Z,100779.67
2018-07-02T14:31:04.271Z,100783.88
2018-07-02T14:33:35.296Z,100782.55
2018-07-02T14:36:06.436Z,100768.95
2018-07-02T14:38:37.453Z,100771.11
2018-07-02T14:41:08.458Z,100773.45
2018-07-02T14:43:39.819Z,100774.30
2018-07-02T14:46:11.004Z,100770.93
2018-07-02T14:48:41.969Z,100763.09
2018-07-02T14:51:14.754Z,100767.12
2018-07-02T14:53:45.774Z,100766.09
2018-07-02T14:56:17.080Z,100772.14
2018-07-02T14:58:48.113Z,100759.56
2018-07-02T15:01:18.864Z,100756.22
2018-07-02T15:03:51.065Z,100755.55
2018-07-02T15:06:22.110Z,100760.26
2018-07-02T15:08:53.347Z,100756.20
2018-07-02T15:11:24.818Z,100755.03
2018-07-02T15:13:55.881Z,100760.36
2018-07-02T15:16:26.887Z,100759.67
2018-07-02T15:18:57.879Z,100755.00
2018-07-02T15:21:29.249Z,100748.45
2018-07-02T15:24:00.348Z,100746.45
2018-07-02T15:29:17.530Z,100747.08
2018-07-02T15:31:50.892Z,100733.05
2018-07-02T15:34:22.059Z,100744.12
2018-07-02T15:36:53.615Z,100720.36
2018-07-02T15:39:24.912Z,100742.43
2018-07-02T15:41:56.250Z,100748.95
2018-07-02T15:44:27.556Z,100739.72
2018-07-02T15:46:59.133Z,100748.61
2018-07-02T15:49:30.553Z,100745.08
2018-07-02T15:52:01.608Z,100742.71
2018-07-02T15:54:32.700Z,100731.30
2018-07-02T15:57:04.059Z,100735.35
2018-07-02T15:59:35.309Z,100730.83
2018-07-02T16:02:06.306Z,100728.30
2018-07-02T16:04:37.303Z,100730.64
2018-07-02T16:07:09.107Z,100735.70
2018-07-02T16:09:40.565Z,100741.72
2018-07-02T16:12:11.581Z,100735.01
2018-07-02T16:14:42.586Z,100735.85
2018-07-02T16:17:14.325Z,100738.03
2018-07-02T16:19:45.361Z,100730.86
2018-07-02T16:22:16.367Z,100729.37
2018-07-02T16:24:47.729Z,100736.54
2018-07-02T16:27:19.008Z,100741.75
2018-07-02T16:29:49.746Z,100747.11
2018-07-02T16:32:20.688Z,100748.82
2018-07-02T16:34:51.732Z,100752.50
2018-07-02T16:37:22.691Z,100742.98
2018-07-02T16:39:53.659Z,100737.78
2018-07-02T16:42:24.568Z,100738.81
2018-07-02T16:44:55.700Z,100732.27
2018-07-02T16:47:26.785Z,100743.98
2018-07-02T16:49:58.244Z,100746.50
2018-07-02T16:52:29.459Z,100745.01
2018-07-02T16:55:00.649Z,100752.37
2018-07-02T16:57:32.435Z,100740.96
2018-07-02T17:00:03.868Z,100750.50
2018-07-02T17:02:35.245Z,100745.67
2018-07-02T17:05:06.200Z,100750.72
2018-07-02T17:07:37.252Z,100749.19
2018-07-02T17:10:09.176Z,100751.03
2018-07-02T17:12:40.238Z,100745.98
2018-07-02T17:15:11.895Z,100744.33
2018-07-02T17:17:43.733Z,100741.83
2018-07-02T17:20:15.687Z,100747.19
2018-07-02T17:24:49.112Z,100736.44
2018-07-02T17:27:37.508Z,100740.30
2018-07-02T17:30:10.473Z,100733.43
2018-07-02T17:32:41.587Z,100739.97
2018-07-02T17:35:12.810Z,100734.48
2018-07-02T17:37:44.258Z,100733.47
2018-07-02T17:40:15.385Z,100739.52
2018-07-02T17:42:46.156Z,100736.67
2018-07-02T17:45:17.124Z,100741.19
2018-07-02T17:47:48.080Z,100742.02
2018-07-02T17:50:19.108Z,100740.35
2018-07-02T17:52:50.297Z,100744.73
2018-07-02T17:55:21.708Z,100743.04
2018-07-02T17:57:52.693Z,100742.22
2018-07-02T18:00:23.700Z,100737.02
2018-07-02T18:02:54.733Z,100735.86
2018-07-02T18:05:25.802Z,100744.37
2018-07-02T18:07:56.884Z,100738.67
2018-07-02T18:10:27.878Z,100745.71
2018-07-02T18:12:58.917Z,100741.20
2018-07-02T18:15:29.920Z,100744.22
2018-07-02T18:18:00.952Z,100745.72
2018-07-02T18:20:32.115Z,100749.75
2018-07-02T18:23:03.374Z,100749.91
2018-07-02T18:25:34.589Z,100749.24
2018-07-02T18:28:05.359Z,100751.24
2018-07-02T18:30:36.458Z,100751.24
2018-07-02T18:33:08.516Z,100753.94
2018-07-02T18:35:39.896Z,100763.97
2018-07-02T18:38:11.234Z,100761.75
2018-07-02T18:40:42.829Z,100770.12
2018-07-02T18:43:16.525Z,100770.95
2018-07-02T18:45:47.675Z,100775.30
2018-07-02T18:48:18.812Z,100771.42
2018-07-02T18:50:49.811Z,100766.06
2018-07-02T18:53:20.810Z,100771.56
2018-07-02T18:55:52.773Z,100772.04
2018-07-02T18:58:23.765Z,100772.68
2018-07-02T19:00:54.998Z,100776.87
2018-07-02T19:03:26.122Z,100780.16
2018-07-02T19:05:57.435Z,100784.45
2018-07-02T19:08:28.661Z,100788.96
2018-07-02T19:10:59.798Z,100788.64
2018-07-02T19:13:30.872Z,100796.31
2018-07-02T19:16:01.635Z,100794.30
2018-07-02T19:18:32.553Z,100799.63
2018-07-02T19:21:03.610Z,100799.94
2018-07-02T19:23:35.585Z,100799.09
2018-07-02T19:26:07.075Z,100802.39
2018-07-02T19:28:38.636Z,100803.37
2018-07-02T19:31:09.894Z,100802.66
2018-07-02T19:33:41.163Z,100809.64
2018-07-02T19:36:12.570Z,100817.79
2018-07-02T19:39:15.232Z,100819.00
2018-07-02T19:41:46.512Z,100825.67
2018-07-02T19:44:17.870Z,100829.45
2018-07-02T19:46:49.474Z,100830.23
2018-07-02T19:49:20.656Z,100830.89
2018-07-02T19:52:54.593Z,100834.04
2018-07-02T19:55:26.050Z,100837.57
2018-07-02T19:57:57.218Z,100838.72
2018-07-02T20:00:28.273Z,100851.39
2018-07-02T20:03:05.429Z,100850.42
2018-07-02T20:05:36.634Z,100857.28
2018-07-02T20:08:07.791Z,100855.87
2018-07-02T20:10:39.992Z,100860.31
2018-07-02T20:13:11.909Z,100855.27
2018-07-02T20:15:48.918Z,100860.39
2018-07-02T20:18:25.769Z,100862.65
2018-07-02T20:21:08.596Z,100872.61
2018-07-02T20:23:41.739Z,100869.07
2018-07-02T20:26:13.126Z,100874.58
2018-07-02T20:28:48.265Z,100873.53
2018-07-02T20:31:19.258Z,100871.52
2018-07-02T20:33:54.355Z,100874.62
2018-07-02T20:36:30.028Z,100867.01
2018-07-02T20:39:02.631Z,100878.20
2018-07-02T20:41:37.568Z,100880.16
2018-07-02T20:44:13.249Z,100881.16
2018-07-02T20:46:44.351Z,100887.57
2018-07-02T20:49:15.562Z,100891.19
2018-07-02T20:51:50.644Z,100887.92
2018-07-02T20:54:24.754Z,100891.73
2018-07-02T20:56:55.795Z,100893.64
2018-07-02T20:59:29.919Z,100892.33
2018-07-02T21:02:04.151Z,100899.34
2018-07-02T21:04:48.898Z,100896.55
2018-07-02T21:07:27.855Z,100894.13
2018-07-02T21:10:01.672Z,100903.75
2018-07-02T21:12:37.492Z,100900.96
2018-07-02T21:15:11.875Z,100910.93
2018-07-02T21:17:48.665Z,100906.73
2018-07-02T21:20:27.297Z,100907.86
2018-07-02T21:26:44.767Z,100899.50
2018-07-02T21:29:29.889Z,100896.58
2018-07-02T21:32:16.732Z,100889.03
2018-07-02T21:35:04.935Z,100898.34
2018-07-02T21:37:55.062Z,100900.75
2018-07-02T21:40:40.218Z,100899.27
2018-07-02T21:43:16.090Z,100902.52
2018-07-02T21:45:51.048Z,100894.66
2018-07-02T21:48:23.844Z,100899.72
2018-07-02T21:50:59.219Z,100899.26
2018-07-02T21:53:34.917Z,100898.92
2018-07-02T21:56:06.219Z,100904.16
2018-07-02T21:58:40.723Z,100903.47
2018-07-02T22:01:21.417Z,100912.69
2018-07-02T22:03:57.663Z,100904.64
2018-07-02T22:06:33.082Z,100916.08
2018-07-02T22:09:11.489Z,100906.03
2018-07-02T22:11:46.646Z,100908.09
2018-07-02T22:14:22.628Z,100913.62
2018-07-02T22:16:58.751Z,100910.39
2018-07-02T22:19:32.339Z,100907.94
2018-07-02T22:22:07.983Z,100915.77
2018-07-02T22:24:42.821Z,100915.83
2018-07-02T22:27:19.645Z,100916.14
2018-07-02T22:29:55.279Z,100919.11
2018-07-02T22:32:30.200Z,100923.64
2018-07-02T22:35:03.585Z,100920.17
2018-07-02T22:37:37.472Z,100921.67
2018-07-02T22:40:11.328Z,100923.91
2018-07-02T22:42:42.636Z,100929.37
2018-07-02T22:45:18.233Z,100931.34
2018-07-02T22:47:53.353Z,100927.55
2018-07-02T22:50:25.846Z,100934.20
2018-07-02T22:52:56.884Z,100932.03
2018-07-02T22:55:29.046Z,100936.01
2018-07-02T22:58:00.286Z,100938.80
2018-07-02T23:00:31.381Z,100941.98
2018-07-02T23:03:05.789Z,100942.59
2018-07-02T23:05:37.012Z,100933.68
2018-07-02T23:08:11.986Z,100937.19
2018-07-02T23:10:46.996Z,100936.09
2018-07-02T23:13:22.769Z,100937.52
2018-07-02T23:16:03.566Z,100937.42
2018-07-02T23:18:36.820Z,100929.23
2018-07-02T23:21:12.083Z,100937.44
2018-07-02T23:23:45.149Z,100936.12
2018-07-02T23:26:19.271Z,100929.02
2018-07-02T23:28:55.267Z,100934.19
2018-07-02T23:31:28.856Z,100935.76
2018-07-02T23:34:01.991Z,100933.15
2018-07-02T23:36:33.310Z,100939.02
2018-07-02T23:39:11.439Z,100943.25
2018-07-02T23:41:44.403Z,100941.98
2018-07-02T23:44:19.435Z,100946.78
2018-07-02T23:46:54.374Z,100948.07
2018-07-02T23:49:29.464Z,100963.32
2018-07-02T23:52:04.310Z,100959.31
2018-07-02T23:54:39.572Z,100960.29
2018-07-02T23:57:13.787Z,100959.94
2018-07-02T23:59:50.628Z,100959.33
